<?xml version="1.0" encoding="UTF-8" standalone="no" ?>
<gpx xmlns="http://www.topografix.com/GPX/1/1" xmlns:xsi="http://www.w3.org/2001/XMLSchema-instance" xsi:schemaLocation="http://www.topografix.com/GPX/1/1 http://www.topografix.com/GPX/1/1/gpx.xsd" version="1.1" creator="VisuGPX - https://www.visugpx.com">
  <metadata>
    <name>11-9_hospice_de_france_refuge_de_venasque</name>
    <desc><![CDATA[11-9_hospice_de_france_refuge_de_venasque]]></desc>
  </metadata>
  <wpt lat="42.70034" lon="0.64188">
    <ele>2246.3</ele>
    <name><![CDATA[Refuge de Vénasque]]></name>
    <type><![CDATA[refuge]]></type>
  </wpt>
  <wpt lat="42.7212" lon="0.6547">
    <ele>1386.7</ele>
    <name><![CDATA[Hospice de France]]></name>
    <type><![CDATA[hotel]]></type>
  </wpt>
  <trk>
    <name><![CDATA[11/9 - Hospice de France - Refuge de Vénasque-25013607]]></name>
    <extensions>
      <line xmlns="http://www.topografix.com/GPX/gpx_style/0/2">
        <color>0000FF</color>
        <opacity>1</opacity>
        <width>4</width>
      </line>
    </extensions>
    <trkseg>
      <trkpt lat="42.72105" lon="0.65473">
        <ele>1386</ele>
        <time>2026-08-25T17:12:13Z</time>
      </trkpt>
      <trkpt lat="42.72099" lon="0.65479">
        <ele>1386</ele>
        <time>2026-08-25T17:12:23Z</time>
      </trkpt>
      <trkpt lat="42.72096" lon="0.65479">
        <ele>1385</ele>
        <time>2026-08-25T17:12:27Z</time>
      </trkpt>
      <trkpt lat="42.72076" lon="0.65466">
        <ele>1385</ele>
        <time>2026-08-25T17:12:57Z</time>
      </trkpt>
      <trkpt lat="42.72069" lon="0.6547">
        <ele>1385</ele>
        <time>2026-08-25T17:13:07Z</time>
      </trkpt>
      <trkpt lat="42.72067" lon="0.6547">
        <ele>1385</ele>
        <time>2026-08-25T17:13:09Z</time>
      </trkpt>
      <trkpt lat="42.72065" lon="0.65467">
        <ele>1385</ele>
        <time>2026-08-25T17:13:13Z</time>
      </trkpt>
      <trkpt lat="42.72062" lon="0.65466">
        <ele>1385</ele>
        <time>2026-08-25T17:13:17Z</time>
      </trkpt>
      <trkpt lat="42.72052" lon="0.65466">
        <ele>1386</ele>
        <time>2026-08-25T17:13:31Z</time>
      </trkpt>
      <trkpt lat="42.7205" lon="0.65464">
        <ele>1386</ele>
        <time>2026-08-25T17:13:34Z</time>
      </trkpt>
      <trkpt lat="42.72047" lon="0.65459">
        <ele>1387</ele>
        <time>2026-08-25T17:13:40Z</time>
      </trkpt>
      <trkpt lat="42.72044" lon="0.65455">
        <ele>1387</ele>
        <time>2026-08-25T17:13:46Z</time>
      </trkpt>
      <trkpt lat="42.7204" lon="0.65453">
        <ele>1387</ele>
        <time>2026-08-25T17:13:52Z</time>
      </trkpt>
      <trkpt lat="42.72036" lon="0.65451">
        <ele>1388</ele>
        <time>2026-08-25T17:13:57Z</time>
      </trkpt>
      <trkpt lat="42.72033" lon="0.65446">
        <ele>1388</ele>
        <time>2026-08-25T17:14:04Z</time>
      </trkpt>
      <trkpt lat="42.72023" lon="0.65442">
        <ele>1389</ele>
        <time>2026-08-25T17:14:18Z</time>
      </trkpt>
      <trkpt lat="42.72013" lon="0.65434">
        <ele>1391</ele>
        <time>2026-08-25T17:14:33Z</time>
      </trkpt>
      <trkpt lat="42.72002" lon="0.65423">
        <ele>1393</ele>
        <time>2026-08-25T17:14:51Z</time>
      </trkpt>
      <trkpt lat="42.72" lon="0.65419">
        <ele>1394</ele>
        <time>2026-08-25T17:14:56Z</time>
      </trkpt>
      <trkpt lat="42.71999" lon="0.65409">
        <ele>1394</ele>
        <time>2026-08-25T17:15:06Z</time>
      </trkpt>
      <trkpt lat="42.71996" lon="0.65403">
        <ele>1395</ele>
        <time>2026-08-25T17:15:13Z</time>
      </trkpt>
      <trkpt lat="42.71981" lon="0.65393">
        <ele>1398</ele>
        <time>2026-08-25T17:15:35Z</time>
      </trkpt>
      <trkpt lat="42.71966" lon="0.6538">
        <ele>1401</ele>
        <time>2026-08-25T17:15:59Z</time>
      </trkpt>
      <trkpt lat="42.71959" lon="0.65376">
        <ele>1403</ele>
        <time>2026-08-25T17:16:09Z</time>
      </trkpt>
      <trkpt lat="42.71945" lon="0.65378">
        <ele>1405</ele>
        <time>2026-08-25T17:16:28Z</time>
      </trkpt>
      <trkpt lat="42.71923" lon="0.65373">
        <ele>1409</ele>
        <time>2026-08-25T17:16:58Z</time>
      </trkpt>
      <trkpt lat="42.71912" lon="0.65372">
        <ele>1411</ele>
        <time>2026-08-25T17:17:12Z</time>
      </trkpt>
      <trkpt lat="42.71903" lon="0.65376">
        <ele>1413</ele>
        <time>2026-08-25T17:17:25Z</time>
      </trkpt>
      <trkpt lat="42.71892" lon="0.65383">
        <ele>1414</ele>
        <time>2026-08-25T17:17:41Z</time>
      </trkpt>
      <trkpt lat="42.71876" lon="0.65382">
        <ele>1417</ele>
        <time>2026-08-25T17:18:03Z</time>
      </trkpt>
      <trkpt lat="42.71871" lon="0.6538">
        <ele>1418</ele>
        <time>2026-08-25T17:18:10Z</time>
      </trkpt>
      <trkpt lat="42.71856" lon="0.6537">
        <ele>1419</ele>
        <time>2026-08-25T17:18:32Z</time>
      </trkpt>
      <trkpt lat="42.71839" lon="0.65349">
        <ele>1420</ele>
        <time>2026-08-25T17:19:03Z</time>
      </trkpt>
      <trkpt lat="42.71791" lon="0.65317">
        <ele>1427</ele>
        <time>2026-08-25T17:20:14Z</time>
      </trkpt>
      <trkpt lat="42.71775" lon="0.65282">
        <ele>1429</ele>
        <time>2026-08-25T17:20:54Z</time>
      </trkpt>
      <trkpt lat="42.71762" lon="0.65272">
        <ele>1430</ele>
        <time>2026-08-25T17:21:14Z</time>
      </trkpt>
      <trkpt lat="42.71714" lon="0.6525">
        <ele>1433</ele>
        <time>2026-08-25T17:22:22Z</time>
      </trkpt>
      <trkpt lat="42.71685" lon="0.65232">
        <ele>1437</ele>
        <time>2026-08-25T17:23:04Z</time>
      </trkpt>
      <trkpt lat="42.71672" lon="0.65229">
        <ele>1438</ele>
        <time>2026-08-25T17:23:22Z</time>
      </trkpt>
      <trkpt lat="42.71653" lon="0.65226">
        <ele>1441</ele>
        <time>2026-08-25T17:23:47Z</time>
      </trkpt>
      <trkpt lat="42.71642" lon="0.65223">
        <ele>1443</ele>
        <time>2026-08-25T17:24:02Z</time>
      </trkpt>
      <trkpt lat="42.71633" lon="0.6522">
        <ele>1445</ele>
        <time>2026-08-25T17:24:15Z</time>
      </trkpt>
      <trkpt lat="42.71593" lon="0.65186">
        <ele>1449</ele>
        <time>2026-08-25T17:25:18Z</time>
      </trkpt>
      <trkpt lat="42.7159" lon="0.65181">
        <ele>1449</ele>
        <time>2026-08-25T17:25:24Z</time>
      </trkpt>
      <trkpt lat="42.71588" lon="0.65164">
        <ele>1449</ele>
        <time>2026-08-25T17:25:41Z</time>
      </trkpt>
      <trkpt lat="42.71586" lon="0.65154">
        <ele>1452</ele>
        <time>2026-08-25T17:25:51Z</time>
      </trkpt>
      <trkpt lat="42.71576" lon="0.65143">
        <ele>1457</ele>
        <time>2026-08-25T17:26:08Z</time>
      </trkpt>
      <trkpt lat="42.71574" lon="0.65137">
        <ele>1459</ele>
        <time>2026-08-25T17:26:15Z</time>
      </trkpt>
      <trkpt lat="42.71566" lon="0.65126">
        <ele>1463</ele>
        <time>2026-08-25T17:26:30Z</time>
      </trkpt>
      <trkpt lat="42.71565" lon="0.6512">
        <ele>1465</ele>
        <time>2026-08-25T17:26:36Z</time>
      </trkpt>
      <trkpt lat="42.71544" lon="0.65117">
        <ele>1468</ele>
        <time>2026-08-25T17:27:04Z</time>
      </trkpt>
      <trkpt lat="42.71516" lon="0.65104">
        <ele>1472</ele>
        <time>2026-08-25T17:27:44Z</time>
      </trkpt>
      <trkpt lat="42.71446" lon="0.6505">
        <ele>1491</ele>
        <time>2026-08-25T17:29:31Z</time>
      </trkpt>
      <trkpt lat="42.71427" lon="0.6503">
        <ele>1497</ele>
        <time>2026-08-25T17:30:03Z</time>
      </trkpt>
      <trkpt lat="42.71422" lon="0.65026">
        <ele>1498</ele>
        <time>2026-08-25T17:30:11Z</time>
      </trkpt>
      <trkpt lat="42.71417" lon="0.65025">
        <ele>1499</ele>
        <time>2026-08-25T17:30:18Z</time>
      </trkpt>
      <trkpt lat="42.71414" lon="0.65021">
        <ele>1500</ele>
        <time>2026-08-25T17:30:23Z</time>
      </trkpt>
      <trkpt lat="42.7141" lon="0.65018">
        <ele>1501</ele>
        <time>2026-08-25T17:30:29Z</time>
      </trkpt>
      <trkpt lat="42.71399" lon="0.65006">
        <ele>1505</ele>
        <time>2026-08-25T17:30:48Z</time>
      </trkpt>
      <trkpt lat="42.71395" lon="0.64998">
        <ele>1508</ele>
        <time>2026-08-25T17:30:58Z</time>
      </trkpt>
      <trkpt lat="42.71394" lon="0.64994">
        <ele>1510</ele>
        <time>2026-08-25T17:31:02Z</time>
      </trkpt>
      <trkpt lat="42.71395" lon="0.64987">
        <ele>1513</ele>
        <time>2026-08-25T17:31:09Z</time>
      </trkpt>
      <trkpt lat="42.71391" lon="0.64984">
        <ele>1515</ele>
        <time>2026-08-25T17:31:15Z</time>
      </trkpt>
      <trkpt lat="42.7139" lon="0.64981">
        <ele>1516</ele>
        <time>2026-08-25T17:31:18Z</time>
      </trkpt>
      <trkpt lat="42.71385" lon="0.64973">
        <ele>1520</ele>
        <time>2026-08-25T17:31:28Z</time>
      </trkpt>
      <trkpt lat="42.71383" lon="0.6497">
        <ele>1522</ele>
        <time>2026-08-25T17:31:32Z</time>
      </trkpt>
      <trkpt lat="42.7138" lon="0.6497">
        <ele>1522</ele>
        <time>2026-08-25T17:31:36Z</time>
      </trkpt>
      <trkpt lat="42.71374" lon="0.64966">
        <ele>1525</ele>
        <time>2026-08-25T17:31:45Z</time>
      </trkpt>
      <trkpt lat="42.71368" lon="0.64963">
        <ele>1527</ele>
        <time>2026-08-25T17:31:54Z</time>
      </trkpt>
      <trkpt lat="42.71368" lon="0.64954">
        <ele>1530</ele>
        <time>2026-08-25T17:32:03Z</time>
      </trkpt>
      <trkpt lat="42.71367" lon="0.64952">
        <ele>1531</ele>
        <time>2026-08-25T17:32:05Z</time>
      </trkpt>
      <trkpt lat="42.71358" lon="0.64948">
        <ele>1534</ele>
        <time>2026-08-25T17:32:18Z</time>
      </trkpt>
      <trkpt lat="42.71357" lon="0.64945">
        <ele>1535</ele>
        <time>2026-08-25T17:32:21Z</time>
      </trkpt>
      <trkpt lat="42.71354" lon="0.64944">
        <ele>1536</ele>
        <time>2026-08-25T17:32:25Z</time>
      </trkpt>
      <trkpt lat="42.71354" lon="0.64936">
        <ele>1539</ele>
        <time>2026-08-25T17:32:33Z</time>
      </trkpt>
      <trkpt lat="42.71354" lon="0.64934">
        <ele>1539</ele>
        <time>2026-08-25T17:32:35Z</time>
      </trkpt>
      <trkpt lat="42.71352" lon="0.64934">
        <ele>1540</ele>
        <time>2026-08-25T17:32:37Z</time>
      </trkpt>
      <trkpt lat="42.71348" lon="0.64932">
        <ele>1541</ele>
        <time>2026-08-25T17:32:43Z</time>
      </trkpt>
      <trkpt lat="42.71347" lon="0.64929">
        <ele>1542</ele>
        <time>2026-08-25T17:32:46Z</time>
      </trkpt>
      <trkpt lat="42.71341" lon="0.64923">
        <ele>1544</ele>
        <time>2026-08-25T17:32:56Z</time>
      </trkpt>
      <trkpt lat="42.71338" lon="0.64914">
        <ele>1548</ele>
        <time>2026-08-25T17:33:06Z</time>
      </trkpt>
      <trkpt lat="42.71335" lon="0.6491">
        <ele>1550</ele>
        <time>2026-08-25T17:33:11Z</time>
      </trkpt>
      <trkpt lat="42.71336" lon="0.64906">
        <ele>1552</ele>
        <time>2026-08-25T17:33:16Z</time>
      </trkpt>
      <trkpt lat="42.71335" lon="0.64905">
        <ele>1553</ele>
        <time>2026-08-25T17:33:17Z</time>
      </trkpt>
      <trkpt lat="42.7133" lon="0.64904">
        <ele>1554</ele>
        <time>2026-08-25T17:33:24Z</time>
      </trkpt>
      <trkpt lat="42.71325" lon="0.649">
        <ele>1556</ele>
        <time>2026-08-25T17:33:32Z</time>
      </trkpt>
      <trkpt lat="42.7132" lon="0.649">
        <ele>1556</ele>
        <time>2026-08-25T17:33:38Z</time>
      </trkpt>
      <trkpt lat="42.71309" lon="0.64896">
        <ele>1559</ele>
        <time>2026-08-25T17:33:54Z</time>
      </trkpt>
      <trkpt lat="42.71306" lon="0.64892">
        <ele>1561</ele>
        <time>2026-08-25T17:33:59Z</time>
      </trkpt>
      <trkpt lat="42.71306" lon="0.64888">
        <ele>1563</ele>
        <time>2026-08-25T17:34:03Z</time>
      </trkpt>
      <trkpt lat="42.71305" lon="0.64883">
        <ele>1566</ele>
        <time>2026-08-25T17:34:08Z</time>
      </trkpt>
      <trkpt lat="42.71299" lon="0.64886">
        <ele>1565</ele>
        <time>2026-08-25T17:34:17Z</time>
      </trkpt>
      <trkpt lat="42.71294" lon="0.64886">
        <ele>1565</ele>
        <time>2026-08-25T17:34:23Z</time>
      </trkpt>
      <trkpt lat="42.71239" lon="0.64866">
        <ele>1580</ele>
        <time>2026-08-25T17:35:39Z</time>
      </trkpt>
      <trkpt lat="42.71233" lon="0.64865">
        <ele>1582</ele>
        <time>2026-08-25T17:35:47Z</time>
      </trkpt>
      <trkpt lat="42.71231" lon="0.64867">
        <ele>1582</ele>
        <time>2026-08-25T17:35:51Z</time>
      </trkpt>
      <trkpt lat="42.71226" lon="0.64867">
        <ele>1583</ele>
        <time>2026-08-25T17:35:57Z</time>
      </trkpt>
      <trkpt lat="42.71222" lon="0.64871">
        <ele>1583</ele>
        <time>2026-08-25T17:36:04Z</time>
      </trkpt>
      <trkpt lat="42.71219" lon="0.64869">
        <ele>1584</ele>
        <time>2026-08-25T17:36:09Z</time>
      </trkpt>
      <trkpt lat="42.71214" lon="0.6487">
        <ele>1585</ele>
        <time>2026-08-25T17:36:15Z</time>
      </trkpt>
      <trkpt lat="42.71205" lon="0.64865">
        <ele>1589</ele>
        <time>2026-08-25T17:36:28Z</time>
      </trkpt>
      <trkpt lat="42.71197" lon="0.6486">
        <ele>1593</ele>
        <time>2026-08-25T17:36:40Z</time>
      </trkpt>
      <trkpt lat="42.71187" lon="0.64845">
        <ele>1601</ele>
        <time>2026-08-25T17:37:00Z</time>
      </trkpt>
      <trkpt lat="42.71181" lon="0.64842">
        <ele>1603</ele>
        <time>2026-08-25T17:37:08Z</time>
      </trkpt>
      <trkpt lat="42.71174" lon="0.64841">
        <ele>1604</ele>
        <time>2026-08-25T17:37:18Z</time>
      </trkpt>
      <trkpt lat="42.71166" lon="0.64842">
        <ele>1606</ele>
        <time>2026-08-25T17:37:29Z</time>
      </trkpt>
      <trkpt lat="42.71164" lon="0.64844">
        <ele>1606</ele>
        <time>2026-08-25T17:37:32Z</time>
      </trkpt>
      <trkpt lat="42.71161" lon="0.64848">
        <ele>1605</ele>
        <time>2026-08-25T17:37:37Z</time>
      </trkpt>
      <trkpt lat="42.71153" lon="0.64853">
        <ele>1606</ele>
        <time>2026-08-25T17:37:49Z</time>
      </trkpt>
      <trkpt lat="42.71141" lon="0.64852">
        <ele>1610</ele>
        <time>2026-08-25T17:38:05Z</time>
      </trkpt>
      <trkpt lat="42.71136" lon="0.6485">
        <ele>1611</ele>
        <time>2026-08-25T17:38:12Z</time>
      </trkpt>
      <trkpt lat="42.71132" lon="0.64847">
        <ele>1613</ele>
        <time>2026-08-25T17:38:18Z</time>
      </trkpt>
      <trkpt lat="42.71131" lon="0.64844">
        <ele>1613</ele>
        <time>2026-08-25T17:38:21Z</time>
      </trkpt>
      <trkpt lat="42.71131" lon="0.64841">
        <ele>1614</ele>
        <time>2026-08-25T17:38:24Z</time>
      </trkpt>
      <trkpt lat="42.71133" lon="0.6484">
        <ele>1613</ele>
        <time>2026-08-25T17:38:27Z</time>
      </trkpt>
      <trkpt lat="42.71137" lon="0.6484">
        <ele>1612</ele>
        <time>2026-08-25T17:38:33Z</time>
      </trkpt>
      <trkpt lat="42.71139" lon="0.64838">
        <ele>1612</ele>
        <time>2026-08-25T17:38:36Z</time>
      </trkpt>
      <trkpt lat="42.7114" lon="0.64836">
        <ele>1612</ele>
        <time>2026-08-25T17:38:38Z</time>
      </trkpt>
      <trkpt lat="42.71143" lon="0.64833">
        <ele>1612</ele>
        <time>2026-08-25T17:38:43Z</time>
      </trkpt>
      <trkpt lat="42.71143" lon="0.64831">
        <ele>1613</ele>
        <time>2026-08-25T17:38:45Z</time>
      </trkpt>
      <trkpt lat="42.71141" lon="0.64829">
        <ele>1615</ele>
        <time>2026-08-25T17:38:49Z</time>
      </trkpt>
      <trkpt lat="42.71136" lon="0.64829">
        <ele>1616</ele>
        <time>2026-08-25T17:38:55Z</time>
      </trkpt>
      <trkpt lat="42.71126" lon="0.64826">
        <ele>1619</ele>
        <time>2026-08-25T17:39:09Z</time>
      </trkpt>
      <trkpt lat="42.7112" lon="0.6482">
        <ele>1622</ele>
        <time>2026-08-25T17:39:19Z</time>
      </trkpt>
      <trkpt lat="42.71117" lon="0.64816">
        <ele>1625</ele>
        <time>2026-08-25T17:39:24Z</time>
      </trkpt>
      <trkpt lat="42.71117" lon="0.64815">
        <ele>1625</ele>
        <time>2026-08-25T17:39:25Z</time>
      </trkpt>
      <trkpt lat="42.7112" lon="0.64815">
        <ele>1625</ele>
        <time>2026-08-25T17:39:29Z</time>
      </trkpt>
      <trkpt lat="42.7113" lon="0.64809">
        <ele>1626</ele>
        <time>2026-08-25T17:39:44Z</time>
      </trkpt>
      <trkpt lat="42.71133" lon="0.64804">
        <ele>1628</ele>
        <time>2026-08-25T17:39:50Z</time>
      </trkpt>
      <trkpt lat="42.71132" lon="0.64798">
        <ele>1631</ele>
        <time>2026-08-25T17:39:56Z</time>
      </trkpt>
      <trkpt lat="42.71123" lon="0.648">
        <ele>1631</ele>
        <time>2026-08-25T17:40:09Z</time>
      </trkpt>
      <trkpt lat="42.71118" lon="0.64797">
        <ele>1633</ele>
        <time>2026-08-25T17:40:16Z</time>
      </trkpt>
      <trkpt lat="42.71118" lon="0.64793">
        <ele>1635</ele>
        <time>2026-08-25T17:40:20Z</time>
      </trkpt>
      <trkpt lat="42.71122" lon="0.64791">
        <ele>1635</ele>
        <time>2026-08-25T17:40:25Z</time>
      </trkpt>
      <trkpt lat="42.71124" lon="0.64784">
        <ele>1638</ele>
        <time>2026-08-25T17:40:33Z</time>
      </trkpt>
      <trkpt lat="42.71124" lon="0.64782">
        <ele>1639</ele>
        <time>2026-08-25T17:40:35Z</time>
      </trkpt>
      <trkpt lat="42.71112" lon="0.6478">
        <ele>1641</ele>
        <time>2026-08-25T17:40:51Z</time>
      </trkpt>
      <trkpt lat="42.71106" lon="0.64775">
        <ele>1643</ele>
        <time>2026-08-25T17:41:00Z</time>
      </trkpt>
      <trkpt lat="42.71104" lon="0.64772">
        <ele>1645</ele>
        <time>2026-08-25T17:41:04Z</time>
      </trkpt>
      <trkpt lat="42.71104" lon="0.6477">
        <ele>1646</ele>
        <time>2026-08-25T17:41:06Z</time>
      </trkpt>
      <trkpt lat="42.71106" lon="0.64769">
        <ele>1646</ele>
        <time>2026-08-25T17:41:09Z</time>
      </trkpt>
      <trkpt lat="42.71111" lon="0.6477">
        <ele>1645</ele>
        <time>2026-08-25T17:41:16Z</time>
      </trkpt>
      <trkpt lat="42.71112" lon="0.64768">
        <ele>1646</ele>
        <time>2026-08-25T17:41:18Z</time>
      </trkpt>
      <trkpt lat="42.71112" lon="0.64765">
        <ele>1647</ele>
        <time>2026-08-25T17:41:21Z</time>
      </trkpt>
      <trkpt lat="42.71112" lon="0.64764">
        <ele>1648</ele>
        <time>2026-08-25T17:41:22Z</time>
      </trkpt>
      <trkpt lat="42.71109" lon="0.64764">
        <ele>1648</ele>
        <time>2026-08-25T17:41:26Z</time>
      </trkpt>
      <trkpt lat="42.71101" lon="0.64759">
        <ele>1650</ele>
        <time>2026-08-25T17:41:38Z</time>
      </trkpt>
      <trkpt lat="42.7108" lon="0.6474">
        <ele>1659</ele>
        <time>2026-08-25T17:42:11Z</time>
      </trkpt>
      <trkpt lat="42.71064" lon="0.64736">
        <ele>1664</ele>
        <time>2026-08-25T17:42:33Z</time>
      </trkpt>
      <trkpt lat="42.71054" lon="0.64727">
        <ele>1669</ele>
        <time>2026-08-25T17:42:49Z</time>
      </trkpt>
      <trkpt lat="42.71053" lon="0.64724">
        <ele>1670</ele>
        <time>2026-08-25T17:42:52Z</time>
      </trkpt>
      <trkpt lat="42.71054" lon="0.64721">
        <ele>1671</ele>
        <time>2026-08-25T17:42:56Z</time>
      </trkpt>
      <trkpt lat="42.71059" lon="0.64721">
        <ele>1670</ele>
        <time>2026-08-25T17:43:02Z</time>
      </trkpt>
      <trkpt lat="42.7106" lon="0.64718">
        <ele>1671</ele>
        <time>2026-08-25T17:43:06Z</time>
      </trkpt>
      <trkpt lat="42.7106" lon="0.64715">
        <ele>1672</ele>
        <time>2026-08-25T17:43:09Z</time>
      </trkpt>
      <trkpt lat="42.71058" lon="0.64712">
        <ele>1673</ele>
        <time>2026-08-25T17:43:12Z</time>
      </trkpt>
      <trkpt lat="42.71055" lon="0.64711">
        <ele>1674</ele>
        <time>2026-08-25T17:43:17Z</time>
      </trkpt>
      <trkpt lat="42.71049" lon="0.64701">
        <ele>1678</ele>
        <time>2026-08-25T17:43:29Z</time>
      </trkpt>
      <trkpt lat="42.71045" lon="0.64697">
        <ele>1680</ele>
        <time>2026-08-25T17:43:36Z</time>
      </trkpt>
      <trkpt lat="42.71024" lon="0.64689">
        <ele>1686</ele>
        <time>2026-08-25T17:44:05Z</time>
      </trkpt>
      <trkpt lat="42.71023" lon="0.64686">
        <ele>1687</ele>
        <time>2026-08-25T17:44:08Z</time>
      </trkpt>
      <trkpt lat="42.71027" lon="0.64684">
        <ele>1687</ele>
        <time>2026-08-25T17:44:14Z</time>
      </trkpt>
      <trkpt lat="42.71049" lon="0.64679">
        <ele>1686</ele>
        <time>2026-08-25T17:44:44Z</time>
      </trkpt>
      <trkpt lat="42.71052" lon="0.64677">
        <ele>1686</ele>
        <time>2026-08-25T17:44:48Z</time>
      </trkpt>
      <trkpt lat="42.71053" lon="0.64674">
        <ele>1687</ele>
        <time>2026-08-25T17:44:51Z</time>
      </trkpt>
      <trkpt lat="42.71051" lon="0.64673">
        <ele>1687</ele>
        <time>2026-08-25T17:44:54Z</time>
      </trkpt>
      <trkpt lat="42.71034" lon="0.64667">
        <ele>1691</ele>
        <time>2026-08-25T17:45:18Z</time>
      </trkpt>
      <trkpt lat="42.71025" lon="0.6466">
        <ele>1698</ele>
        <time>2026-08-25T17:45:31Z</time>
      </trkpt>
      <trkpt lat="42.71014" lon="0.64659">
        <ele>1699</ele>
        <time>2026-08-25T17:45:46Z</time>
      </trkpt>
      <trkpt lat="42.7101" lon="0.64652">
        <ele>1705</ele>
        <time>2026-08-25T17:45:55Z</time>
      </trkpt>
      <trkpt lat="42.71003" lon="0.64651">
        <ele>1706</ele>
        <time>2026-08-25T17:46:04Z</time>
      </trkpt>
      <trkpt lat="42.71003" lon="0.64651">
        <ele>1706</ele>
        <time>2026-08-25T17:46:04Z</time>
      </trkpt>
      <trkpt lat="42.71002" lon="0.6465">
        <ele>1707</ele>
        <time>2026-08-25T17:46:06Z</time>
      </trkpt>
      <trkpt lat="42.70996" lon="0.64655">
        <ele>1705</ele>
        <time>2026-08-25T17:46:15Z</time>
      </trkpt>
      <trkpt lat="42.70993" lon="0.64655">
        <ele>1706</ele>
        <time>2026-08-25T17:46:19Z</time>
      </trkpt>
      <trkpt lat="42.70991" lon="0.64652">
        <ele>1708</ele>
        <time>2026-08-25T17:46:23Z</time>
      </trkpt>
      <trkpt lat="42.70982" lon="0.64645">
        <ele>1716</ele>
        <time>2026-08-25T17:46:37Z</time>
      </trkpt>
      <trkpt lat="42.7098" lon="0.64646">
        <ele>1716</ele>
        <time>2026-08-25T17:46:40Z</time>
      </trkpt>
      <trkpt lat="42.7097" lon="0.64638">
        <ele>1724</ele>
        <time>2026-08-25T17:46:55Z</time>
      </trkpt>
      <trkpt lat="42.70962" lon="0.64635">
        <ele>1728</ele>
        <time>2026-08-25T17:47:07Z</time>
      </trkpt>
      <trkpt lat="42.70956" lon="0.64628">
        <ele>1733</ele>
        <time>2026-08-25T17:47:17Z</time>
      </trkpt>
      <trkpt lat="42.70929" lon="0.6462">
        <ele>1742</ele>
        <time>2026-08-25T17:47:54Z</time>
      </trkpt>
      <trkpt lat="42.70925" lon="0.6462">
        <ele>1743</ele>
        <time>2026-08-25T17:47:59Z</time>
      </trkpt>
      <trkpt lat="42.70917" lon="0.64616">
        <ele>1746</ele>
        <time>2026-08-25T17:48:11Z</time>
      </trkpt>
      <trkpt lat="42.70912" lon="0.64612">
        <ele>1749</ele>
        <time>2026-08-25T17:48:18Z</time>
      </trkpt>
      <trkpt lat="42.70898" lon="0.64606">
        <ele>1755</ele>
        <time>2026-08-25T17:48:38Z</time>
      </trkpt>
      <trkpt lat="42.70892" lon="0.64602">
        <ele>1758</ele>
        <time>2026-08-25T17:48:47Z</time>
      </trkpt>
      <trkpt lat="42.70892" lon="0.64597">
        <ele>1759</ele>
        <time>2026-08-25T17:48:52Z</time>
      </trkpt>
      <trkpt lat="42.70884" lon="0.64593">
        <ele>1762</ele>
        <time>2026-08-25T17:49:03Z</time>
      </trkpt>
      <trkpt lat="42.70887" lon="0.64588">
        <ele>1763</ele>
        <time>2026-08-25T17:49:10Z</time>
      </trkpt>
      <trkpt lat="42.70887" lon="0.6458">
        <ele>1765</ele>
        <time>2026-08-25T17:49:17Z</time>
      </trkpt>
      <trkpt lat="42.70883" lon="0.6458">
        <ele>1766</ele>
        <time>2026-08-25T17:49:23Z</time>
      </trkpt>
      <trkpt lat="42.70873" lon="0.64584">
        <ele>1767</ele>
        <time>2026-08-25T17:49:37Z</time>
      </trkpt>
      <trkpt lat="42.70869" lon="0.6459">
        <ele>1767</ele>
        <time>2026-08-25T17:49:45Z</time>
      </trkpt>
      <trkpt lat="42.70862" lon="0.64611">
        <ele>1765</ele>
        <time>2026-08-25T17:50:07Z</time>
      </trkpt>
      <trkpt lat="42.70858" lon="0.64616">
        <ele>1765</ele>
        <time>2026-08-25T17:50:14Z</time>
      </trkpt>
      <trkpt lat="42.70854" lon="0.64619">
        <ele>1766</ele>
        <time>2026-08-25T17:50:20Z</time>
      </trkpt>
      <trkpt lat="42.70849" lon="0.6462">
        <ele>1768</ele>
        <time>2026-08-25T17:50:27Z</time>
      </trkpt>
      <trkpt lat="42.70844" lon="0.64622">
        <ele>1769</ele>
        <time>2026-08-25T17:50:34Z</time>
      </trkpt>
      <trkpt lat="42.70839" lon="0.64622">
        <ele>1771</ele>
        <time>2026-08-25T17:50:41Z</time>
      </trkpt>
      <trkpt lat="42.70815" lon="0.64612">
        <ele>1780</ele>
        <time>2026-08-25T17:51:14Z</time>
      </trkpt>
      <trkpt lat="42.70805" lon="0.6461">
        <ele>1783</ele>
        <time>2026-08-25T17:51:28Z</time>
      </trkpt>
      <trkpt lat="42.708" lon="0.64612">
        <ele>1785</ele>
        <time>2026-08-25T17:51:35Z</time>
      </trkpt>
      <trkpt lat="42.70796" lon="0.64611">
        <ele>1786</ele>
        <time>2026-08-25T17:51:40Z</time>
      </trkpt>
      <trkpt lat="42.70786" lon="0.64614">
        <ele>1789</ele>
        <time>2026-08-25T17:51:54Z</time>
      </trkpt>
      <trkpt lat="42.70783" lon="0.64616">
        <ele>1789</ele>
        <time>2026-08-25T17:51:58Z</time>
      </trkpt>
      <trkpt lat="42.70757" lon="0.64628">
        <ele>1796</ele>
        <time>2026-08-25T17:52:35Z</time>
      </trkpt>
      <trkpt lat="42.70753" lon="0.64632">
        <ele>1797</ele>
        <time>2026-08-25T17:52:42Z</time>
      </trkpt>
      <trkpt lat="42.70751" lon="0.64635">
        <ele>1797</ele>
        <time>2026-08-25T17:52:46Z</time>
      </trkpt>
      <trkpt lat="42.70752" lon="0.64639">
        <ele>1797</ele>
        <time>2026-08-25T17:52:50Z</time>
      </trkpt>
      <trkpt lat="42.70752" lon="0.64639">
        <ele>1797</ele>
        <time>2026-08-25T17:52:50Z</time>
      </trkpt>
      <trkpt lat="42.70755" lon="0.64649">
        <ele>1794</ele>
        <time>2026-08-25T17:53:00Z</time>
      </trkpt>
      <trkpt lat="42.70756" lon="0.64664">
        <ele>1792</ele>
        <time>2026-08-25T17:53:15Z</time>
      </trkpt>
      <trkpt lat="42.70759" lon="0.64679">
        <ele>1792</ele>
        <time>2026-08-25T17:53:30Z</time>
      </trkpt>
      <trkpt lat="42.70757" lon="0.6468">
        <ele>1793</ele>
        <time>2026-08-25T17:53:33Z</time>
      </trkpt>
      <trkpt lat="42.70755" lon="0.64685">
        <ele>1795</ele>
        <time>2026-08-25T17:53:39Z</time>
      </trkpt>
      <trkpt lat="42.7075" lon="0.64689">
        <ele>1797</ele>
        <time>2026-08-25T17:53:46Z</time>
      </trkpt>
      <trkpt lat="42.70747" lon="0.64704">
        <ele>1801</ele>
        <time>2026-08-25T17:54:02Z</time>
      </trkpt>
      <trkpt lat="42.70744" lon="0.64713">
        <ele>1804</ele>
        <time>2026-08-25T17:54:11Z</time>
      </trkpt>
      <trkpt lat="42.70742" lon="0.64727">
        <ele>1807</ele>
        <time>2026-08-25T17:54:25Z</time>
      </trkpt>
      <trkpt lat="42.70743" lon="0.64732">
        <ele>1807</ele>
        <time>2026-08-25T17:54:31Z</time>
      </trkpt>
      <trkpt lat="42.70742" lon="0.64761">
        <ele>1815</ele>
        <time>2026-08-25T17:54:59Z</time>
      </trkpt>
      <trkpt lat="42.70747" lon="0.64778">
        <ele>1818</ele>
        <time>2026-08-25T17:55:17Z</time>
      </trkpt>
      <trkpt lat="42.70746" lon="0.64781">
        <ele>1820</ele>
        <time>2026-08-25T17:55:20Z</time>
      </trkpt>
      <trkpt lat="42.70741" lon="0.64776">
        <ele>1821</ele>
        <time>2026-08-25T17:55:28Z</time>
      </trkpt>
      <trkpt lat="42.70727" lon="0.6477">
        <ele>1826</ele>
        <time>2026-08-25T17:55:48Z</time>
      </trkpt>
      <trkpt lat="42.70724" lon="0.64767">
        <ele>1827</ele>
        <time>2026-08-25T17:55:53Z</time>
      </trkpt>
      <trkpt lat="42.7072" lon="0.64753">
        <ele>1824</ele>
        <time>2026-08-25T17:56:08Z</time>
      </trkpt>
      <trkpt lat="42.70718" lon="0.64751">
        <ele>1825</ele>
        <time>2026-08-25T17:56:11Z</time>
      </trkpt>
      <trkpt lat="42.70717" lon="0.64751">
        <ele>1825</ele>
        <time>2026-08-25T17:56:12Z</time>
      </trkpt>
      <trkpt lat="42.70714" lon="0.64765">
        <ele>1832</ele>
        <time>2026-08-25T17:56:27Z</time>
      </trkpt>
      <trkpt lat="42.70713" lon="0.64781">
        <ele>1838</ele>
        <time>2026-08-25T17:56:42Z</time>
      </trkpt>
      <trkpt lat="42.70713" lon="0.64785">
        <ele>1839</ele>
        <time>2026-08-25T17:56:46Z</time>
      </trkpt>
      <trkpt lat="42.70715" lon="0.6479">
        <ele>1840</ele>
        <time>2026-08-25T17:56:52Z</time>
      </trkpt>
      <trkpt lat="42.7072" lon="0.64799">
        <ele>1840</ele>
        <time>2026-08-25T17:57:03Z</time>
      </trkpt>
      <trkpt lat="42.70719" lon="0.64801">
        <ele>1841</ele>
        <time>2026-08-25T17:57:05Z</time>
      </trkpt>
      <trkpt lat="42.7071" lon="0.64799">
        <ele>1845</ele>
        <time>2026-08-25T17:57:18Z</time>
      </trkpt>
      <trkpt lat="42.70703" lon="0.64793">
        <ele>1847</ele>
        <time>2026-08-25T17:57:29Z</time>
      </trkpt>
      <trkpt lat="42.70701" lon="0.64789">
        <ele>1847</ele>
        <time>2026-08-25T17:57:33Z</time>
      </trkpt>
      <trkpt lat="42.70698" lon="0.64772">
        <ele>1843</ele>
        <time>2026-08-25T17:57:50Z</time>
      </trkpt>
      <trkpt lat="42.70693" lon="0.6476">
        <ele>1842</ele>
        <time>2026-08-25T17:58:04Z</time>
      </trkpt>
      <trkpt lat="42.7069" lon="0.6476">
        <ele>1844</ele>
        <time>2026-08-25T17:58:08Z</time>
      </trkpt>
      <trkpt lat="42.7069" lon="0.64762">
        <ele>1844</ele>
        <time>2026-08-25T17:58:10Z</time>
      </trkpt>
      <trkpt lat="42.70692" lon="0.64768">
        <ele>1845</ele>
        <time>2026-08-25T17:58:16Z</time>
      </trkpt>
      <trkpt lat="42.70692" lon="0.64773">
        <ele>1847</ele>
        <time>2026-08-25T17:58:21Z</time>
      </trkpt>
      <trkpt lat="42.7069" lon="0.64781">
        <ele>1850</ele>
        <time>2026-08-25T17:58:30Z</time>
      </trkpt>
      <trkpt lat="42.70681" lon="0.64806">
        <ele>1863</ele>
        <time>2026-08-25T17:58:57Z</time>
      </trkpt>
      <trkpt lat="42.7068" lon="0.64811">
        <ele>1865</ele>
        <time>2026-08-25T17:59:02Z</time>
      </trkpt>
      <trkpt lat="42.70681" lon="0.64813">
        <ele>1865</ele>
        <time>2026-08-25T17:59:04Z</time>
      </trkpt>
      <trkpt lat="42.70684" lon="0.64818">
        <ele>1865</ele>
        <time>2026-08-25T17:59:11Z</time>
      </trkpt>
      <trkpt lat="42.70688" lon="0.64822">
        <ele>1864</ele>
        <time>2026-08-25T17:59:17Z</time>
      </trkpt>
      <trkpt lat="42.7069" lon="0.64825">
        <ele>1864</ele>
        <time>2026-08-25T17:59:21Z</time>
      </trkpt>
      <trkpt lat="42.70692" lon="0.64829">
        <ele>1864</ele>
        <time>2026-08-25T17:59:26Z</time>
      </trkpt>
      <trkpt lat="42.70692" lon="0.6483">
        <ele>1864</ele>
        <time>2026-08-25T17:59:27Z</time>
      </trkpt>
      <trkpt lat="42.7069" lon="0.6483">
        <ele>1865</ele>
        <time>2026-08-25T17:59:30Z</time>
      </trkpt>
      <trkpt lat="42.70689" lon="0.64829">
        <ele>1866</ele>
        <time>2026-08-25T17:59:31Z</time>
      </trkpt>
      <trkpt lat="42.70684" lon="0.64827">
        <ele>1868</ele>
        <time>2026-08-25T17:59:38Z</time>
      </trkpt>
      <trkpt lat="42.70666" lon="0.64829">
        <ele>1877</ele>
        <time>2026-08-25T18:00:02Z</time>
      </trkpt>
      <trkpt lat="42.70662" lon="0.64827">
        <ele>1880</ele>
        <time>2026-08-25T18:00:08Z</time>
      </trkpt>
      <trkpt lat="42.7066" lon="0.6482">
        <ele>1879</ele>
        <time>2026-08-25T18:00:15Z</time>
      </trkpt>
      <trkpt lat="42.7066" lon="0.64813">
        <ele>1877</ele>
        <time>2026-08-25T18:00:22Z</time>
      </trkpt>
      <trkpt lat="42.70661" lon="0.64806">
        <ele>1874</ele>
        <time>2026-08-25T18:00:29Z</time>
      </trkpt>
      <trkpt lat="42.70661" lon="0.64803">
        <ele>1873</ele>
        <time>2026-08-25T18:00:32Z</time>
      </trkpt>
      <trkpt lat="42.7066" lon="0.64798">
        <ele>1873</ele>
        <time>2026-08-25T18:00:37Z</time>
      </trkpt>
      <trkpt lat="42.70657" lon="0.6479">
        <ele>1872</ele>
        <time>2026-08-25T18:00:46Z</time>
      </trkpt>
      <trkpt lat="42.70653" lon="0.64785">
        <ele>1874</ele>
        <time>2026-08-25T18:00:53Z</time>
      </trkpt>
      <trkpt lat="42.70648" lon="0.64782">
        <ele>1877</ele>
        <time>2026-08-25T18:01:01Z</time>
      </trkpt>
      <trkpt lat="42.70646" lon="0.64781">
        <ele>1878</ele>
        <time>2026-08-25T18:01:03Z</time>
      </trkpt>
      <trkpt lat="42.70644" lon="0.64783">
        <ele>1880</ele>
        <time>2026-08-25T18:01:07Z</time>
      </trkpt>
      <trkpt lat="42.70642" lon="0.64792">
        <ele>1884</ele>
        <time>2026-08-25T18:01:16Z</time>
      </trkpt>
      <trkpt lat="42.70639" lon="0.64793">
        <ele>1886</ele>
        <time>2026-08-25T18:01:20Z</time>
      </trkpt>
      <trkpt lat="42.70635" lon="0.64792">
        <ele>1889</ele>
        <time>2026-08-25T18:01:26Z</time>
      </trkpt>
      <trkpt lat="42.70628" lon="0.64782">
        <ele>1891</ele>
        <time>2026-08-25T18:01:39Z</time>
      </trkpt>
      <trkpt lat="42.70623" lon="0.64767">
        <ele>1889</ele>
        <time>2026-08-25T18:01:55Z</time>
      </trkpt>
      <trkpt lat="42.70618" lon="0.64751">
        <ele>1888</ele>
        <time>2026-08-25T18:02:12Z</time>
      </trkpt>
      <trkpt lat="42.70615" lon="0.64746">
        <ele>1889</ele>
        <time>2026-08-25T18:02:19Z</time>
      </trkpt>
      <trkpt lat="42.70614" lon="0.64739">
        <ele>1888</ele>
        <time>2026-08-25T18:02:26Z</time>
      </trkpt>
      <trkpt lat="42.70616" lon="0.64723">
        <ele>1885</ele>
        <time>2026-08-25T18:02:42Z</time>
      </trkpt>
      <trkpt lat="42.70615" lon="0.64716">
        <ele>1884</ele>
        <time>2026-08-25T18:02:49Z</time>
      </trkpt>
      <trkpt lat="42.70613" lon="0.64714">
        <ele>1885</ele>
        <time>2026-08-25T18:02:52Z</time>
      </trkpt>
      <trkpt lat="42.70611" lon="0.64714">
        <ele>1887</ele>
        <time>2026-08-25T18:02:55Z</time>
      </trkpt>
      <trkpt lat="42.7061" lon="0.64715">
        <ele>1888</ele>
        <time>2026-08-25T18:02:56Z</time>
      </trkpt>
      <trkpt lat="42.70605" lon="0.64735">
        <ele>1894</ele>
        <time>2026-08-25T18:03:17Z</time>
      </trkpt>
      <trkpt lat="42.70605" lon="0.64746">
        <ele>1896</ele>
        <time>2026-08-25T18:03:28Z</time>
      </trkpt>
      <trkpt lat="42.70603" lon="0.64749">
        <ele>1897</ele>
        <time>2026-08-25T18:03:32Z</time>
      </trkpt>
      <trkpt lat="42.70601" lon="0.64748">
        <ele>1899</ele>
        <time>2026-08-25T18:03:34Z</time>
      </trkpt>
      <trkpt lat="42.70599" lon="0.64741">
        <ele>1899</ele>
        <time>2026-08-25T18:03:42Z</time>
      </trkpt>
      <trkpt lat="42.706" lon="0.64725">
        <ele>1896</ele>
        <time>2026-08-25T18:03:58Z</time>
      </trkpt>
      <trkpt lat="42.706" lon="0.64723">
        <ele>1896</ele>
        <time>2026-08-25T18:04:00Z</time>
      </trkpt>
      <trkpt lat="42.70599" lon="0.64722">
        <ele>1897</ele>
        <time>2026-08-25T18:04:01Z</time>
      </trkpt>
      <trkpt lat="42.70597" lon="0.64724">
        <ele>1899</ele>
        <time>2026-08-25T18:04:05Z</time>
      </trkpt>
      <trkpt lat="42.70595" lon="0.64735">
        <ele>1901</ele>
        <time>2026-08-25T18:04:16Z</time>
      </trkpt>
      <trkpt lat="42.70593" lon="0.64738">
        <ele>1903</ele>
        <time>2026-08-25T18:04:20Z</time>
      </trkpt>
      <trkpt lat="42.70592" lon="0.64744">
        <ele>1904</ele>
        <time>2026-08-25T18:04:26Z</time>
      </trkpt>
      <trkpt lat="42.70591" lon="0.64749">
        <ele>1906</ele>
        <time>2026-08-25T18:04:31Z</time>
      </trkpt>
      <trkpt lat="42.70588" lon="0.64758">
        <ele>1911</ele>
        <time>2026-08-25T18:04:40Z</time>
      </trkpt>
      <trkpt lat="42.70589" lon="0.64762">
        <ele>1911</ele>
        <time>2026-08-25T18:04:45Z</time>
      </trkpt>
      <trkpt lat="42.70594" lon="0.64772">
        <ele>1911</ele>
        <time>2026-08-25T18:04:56Z</time>
      </trkpt>
      <trkpt lat="42.70595" lon="0.64778">
        <ele>1913</ele>
        <time>2026-08-25T18:05:02Z</time>
      </trkpt>
      <trkpt lat="42.70593" lon="0.64778">
        <ele>1914</ele>
        <time>2026-08-25T18:05:05Z</time>
      </trkpt>
      <trkpt lat="42.70586" lon="0.6477">
        <ele>1916</ele>
        <time>2026-08-25T18:05:17Z</time>
      </trkpt>
      <trkpt lat="42.70584" lon="0.64769">
        <ele>1917</ele>
        <time>2026-08-25T18:05:20Z</time>
      </trkpt>
      <trkpt lat="42.70583" lon="0.6477">
        <ele>1918</ele>
        <time>2026-08-25T18:05:22Z</time>
      </trkpt>
      <trkpt lat="42.70586" lon="0.64775">
        <ele>1918</ele>
        <time>2026-08-25T18:05:28Z</time>
      </trkpt>
      <trkpt lat="42.70589" lon="0.64785">
        <ele>1920</ele>
        <time>2026-08-25T18:05:39Z</time>
      </trkpt>
      <trkpt lat="42.70589" lon="0.64787">
        <ele>1920</ele>
        <time>2026-08-25T18:05:41Z</time>
      </trkpt>
      <trkpt lat="42.70587" lon="0.64788">
        <ele>1922</ele>
        <time>2026-08-25T18:05:44Z</time>
      </trkpt>
      <trkpt lat="42.70581" lon="0.64781">
        <ele>1924</ele>
        <time>2026-08-25T18:05:54Z</time>
      </trkpt>
      <trkpt lat="42.70577" lon="0.64772">
        <ele>1923</ele>
        <time>2026-08-25T18:06:04Z</time>
      </trkpt>
      <trkpt lat="42.70575" lon="0.64771">
        <ele>1924</ele>
        <time>2026-08-25T18:06:07Z</time>
      </trkpt>
      <trkpt lat="42.70574" lon="0.64772">
        <ele>1925</ele>
        <time>2026-08-25T18:06:09Z</time>
      </trkpt>
      <trkpt lat="42.70574" lon="0.64774">
        <ele>1926</ele>
        <time>2026-08-25T18:06:11Z</time>
      </trkpt>
      <trkpt lat="42.70575" lon="0.64783">
        <ele>1928</ele>
        <time>2026-08-25T18:06:20Z</time>
      </trkpt>
      <trkpt lat="42.70578" lon="0.64794">
        <ele>1930</ele>
        <time>2026-08-25T18:06:31Z</time>
      </trkpt>
      <trkpt lat="42.70578" lon="0.64796">
        <ele>1931</ele>
        <time>2026-08-25T18:06:33Z</time>
      </trkpt>
      <trkpt lat="42.70577" lon="0.64797">
        <ele>1932</ele>
        <time>2026-08-25T18:06:35Z</time>
      </trkpt>
      <trkpt lat="42.70575" lon="0.64796">
        <ele>1933</ele>
        <time>2026-08-25T18:06:38Z</time>
      </trkpt>
      <trkpt lat="42.70573" lon="0.64793">
        <ele>1933</ele>
        <time>2026-08-25T18:06:42Z</time>
      </trkpt>
      <trkpt lat="42.70569" lon="0.64787">
        <ele>1934</ele>
        <time>2026-08-25T18:06:50Z</time>
      </trkpt>
      <trkpt lat="42.70558" lon="0.64776">
        <ele>1937</ele>
        <time>2026-08-25T18:07:08Z</time>
      </trkpt>
      <trkpt lat="42.70556" lon="0.64772">
        <ele>1938</ele>
        <time>2026-08-25T18:07:13Z</time>
      </trkpt>
      <trkpt lat="42.70555" lon="0.64768">
        <ele>1937</ele>
        <time>2026-08-25T18:07:17Z</time>
      </trkpt>
      <trkpt lat="42.70556" lon="0.64764">
        <ele>1935</ele>
        <time>2026-08-25T18:07:21Z</time>
      </trkpt>
      <trkpt lat="42.70554" lon="0.64755">
        <ele>1934</ele>
        <time>2026-08-25T18:07:30Z</time>
      </trkpt>
      <trkpt lat="42.70553" lon="0.64744">
        <ele>1932</ele>
        <time>2026-08-25T18:07:41Z</time>
      </trkpt>
      <trkpt lat="42.70553" lon="0.64737">
        <ele>1932</ele>
        <time>2026-08-25T18:07:48Z</time>
      </trkpt>
      <trkpt lat="42.70551" lon="0.64729">
        <ele>1933</ele>
        <time>2026-08-25T18:07:56Z</time>
      </trkpt>
      <trkpt lat="42.7055" lon="0.64721">
        <ele>1933</ele>
        <time>2026-08-25T18:08:04Z</time>
      </trkpt>
      <trkpt lat="42.70548" lon="0.6472">
        <ele>1935</ele>
        <time>2026-08-25T18:08:07Z</time>
      </trkpt>
      <trkpt lat="42.70543" lon="0.64739">
        <ele>1939</ele>
        <time>2026-08-25T18:08:27Z</time>
      </trkpt>
      <trkpt lat="42.70534" lon="0.6476">
        <ele>1949</ele>
        <time>2026-08-25T18:08:51Z</time>
      </trkpt>
      <trkpt lat="42.7053" lon="0.64767">
        <ele>1954</ele>
        <time>2026-08-25T18:08:59Z</time>
      </trkpt>
      <trkpt lat="42.70529" lon="0.64771">
        <ele>1956</ele>
        <time>2026-08-25T18:09:03Z</time>
      </trkpt>
      <trkpt lat="42.70528" lon="0.64781">
        <ele>1959</ele>
        <time>2026-08-25T18:09:13Z</time>
      </trkpt>
      <trkpt lat="42.70529" lon="0.64786">
        <ele>1960</ele>
        <time>2026-08-25T18:09:18Z</time>
      </trkpt>
      <trkpt lat="42.70537" lon="0.64803">
        <ele>1959</ele>
        <time>2026-08-25T18:09:38Z</time>
      </trkpt>
      <trkpt lat="42.70539" lon="0.64811">
        <ele>1960</ele>
        <time>2026-08-25T18:09:46Z</time>
      </trkpt>
      <trkpt lat="42.70541" lon="0.6483">
        <ele>1964</ele>
        <time>2026-08-25T18:10:05Z</time>
      </trkpt>
      <trkpt lat="42.7054" lon="0.64832">
        <ele>1966</ele>
        <time>2026-08-25T18:10:08Z</time>
      </trkpt>
      <trkpt lat="42.70536" lon="0.64828">
        <ele>1967</ele>
        <time>2026-08-25T18:10:14Z</time>
      </trkpt>
      <trkpt lat="42.70532" lon="0.64819">
        <ele>1967</ele>
        <time>2026-08-25T18:10:25Z</time>
      </trkpt>
      <trkpt lat="42.70528" lon="0.64813">
        <ele>1967</ele>
        <time>2026-08-25T18:10:33Z</time>
      </trkpt>
      <trkpt lat="42.70523" lon="0.64807">
        <ele>1969</ele>
        <time>2026-08-25T18:10:41Z</time>
      </trkpt>
      <trkpt lat="42.70515" lon="0.64801">
        <ele>1973</ele>
        <time>2026-08-25T18:10:54Z</time>
      </trkpt>
      <trkpt lat="42.70506" lon="0.64796">
        <ele>1977</ele>
        <time>2026-08-25T18:11:07Z</time>
      </trkpt>
      <trkpt lat="42.70504" lon="0.64794">
        <ele>1978</ele>
        <time>2026-08-25T18:11:10Z</time>
      </trkpt>
      <trkpt lat="42.70503" lon="0.64791">
        <ele>1978</ele>
        <time>2026-08-25T18:11:13Z</time>
      </trkpt>
      <trkpt lat="42.70505" lon="0.64779">
        <ele>1974</ele>
        <time>2026-08-25T18:11:25Z</time>
      </trkpt>
      <trkpt lat="42.70505" lon="0.64765">
        <ele>1971</ele>
        <time>2026-08-25T18:11:39Z</time>
      </trkpt>
      <trkpt lat="42.705" lon="0.64736">
        <ele>1971</ele>
        <time>2026-08-25T18:12:08Z</time>
      </trkpt>
      <trkpt lat="42.70498" lon="0.64729">
        <ele>1972</ele>
        <time>2026-08-25T18:12:16Z</time>
      </trkpt>
      <trkpt lat="42.70495" lon="0.64726">
        <ele>1974</ele>
        <time>2026-08-25T18:12:21Z</time>
      </trkpt>
      <trkpt lat="42.70494" lon="0.64726">
        <ele>1975</ele>
        <time>2026-08-25T18:12:22Z</time>
      </trkpt>
      <trkpt lat="42.70492" lon="0.64727">
        <ele>1976</ele>
        <time>2026-08-25T18:12:25Z</time>
      </trkpt>
      <trkpt lat="42.70491" lon="0.64733">
        <ele>1977</ele>
        <time>2026-08-25T18:12:31Z</time>
      </trkpt>
      <trkpt lat="42.70492" lon="0.64744">
        <ele>1976</ele>
        <time>2026-08-25T18:12:42Z</time>
      </trkpt>
      <trkpt lat="42.70491" lon="0.64757">
        <ele>1978</ele>
        <time>2026-08-25T18:12:54Z</time>
      </trkpt>
      <trkpt lat="42.70489" lon="0.64764">
        <ele>1981</ele>
        <time>2026-08-25T18:13:02Z</time>
      </trkpt>
      <trkpt lat="42.70488" lon="0.64768">
        <ele>1983</ele>
        <time>2026-08-25T18:13:06Z</time>
      </trkpt>
      <trkpt lat="42.70485" lon="0.64772">
        <ele>1986</ele>
        <time>2026-08-25T18:13:12Z</time>
      </trkpt>
      <trkpt lat="42.70484" lon="0.64772">
        <ele>1986</ele>
        <time>2026-08-25T18:13:13Z</time>
      </trkpt>
      <trkpt lat="42.70483" lon="0.6477">
        <ele>1987</ele>
        <time>2026-08-25T18:13:15Z</time>
      </trkpt>
      <trkpt lat="42.70484" lon="0.64762">
        <ele>1984</ele>
        <time>2026-08-25T18:13:23Z</time>
      </trkpt>
      <trkpt lat="42.70482" lon="0.64746">
        <ele>1982</ele>
        <time>2026-08-25T18:13:39Z</time>
      </trkpt>
      <trkpt lat="42.7048" lon="0.6474">
        <ele>1984</ele>
        <time>2026-08-25T18:13:46Z</time>
      </trkpt>
      <trkpt lat="42.7047" lon="0.64721">
        <ele>1990</ele>
        <time>2026-08-25T18:14:08Z</time>
      </trkpt>
      <trkpt lat="42.70469" lon="0.64722">
        <ele>1991</ele>
        <time>2026-08-25T18:14:10Z</time>
      </trkpt>
      <trkpt lat="42.70471" lon="0.64732">
        <ele>1990</ele>
        <time>2026-08-25T18:14:20Z</time>
      </trkpt>
      <trkpt lat="42.7047" lon="0.64743">
        <ele>1990</ele>
        <time>2026-08-25T18:14:31Z</time>
      </trkpt>
      <trkpt lat="42.70469" lon="0.6476">
        <ele>1993</ele>
        <time>2026-08-25T18:14:48Z</time>
      </trkpt>
      <trkpt lat="42.70466" lon="0.6477">
        <ele>1998</ele>
        <time>2026-08-25T18:14:58Z</time>
      </trkpt>
      <trkpt lat="42.70463" lon="0.64775">
        <ele>2001</ele>
        <time>2026-08-25T18:15:05Z</time>
      </trkpt>
      <trkpt lat="42.70462" lon="0.64775">
        <ele>2002</ele>
        <time>2026-08-25T18:15:06Z</time>
      </trkpt>
      <trkpt lat="42.70461" lon="0.64774">
        <ele>2002</ele>
        <time>2026-08-25T18:15:08Z</time>
      </trkpt>
      <trkpt lat="42.70463" lon="0.64768">
        <ele>1999</ele>
        <time>2026-08-25T18:15:14Z</time>
      </trkpt>
      <trkpt lat="42.70463" lon="0.6476">
        <ele>1997</ele>
        <time>2026-08-25T18:15:22Z</time>
      </trkpt>
      <trkpt lat="42.70456" lon="0.64744">
        <ele>1999</ele>
        <time>2026-08-25T18:15:40Z</time>
      </trkpt>
      <trkpt lat="42.70451" lon="0.64734">
        <ele>2003</ele>
        <time>2026-08-25T18:15:52Z</time>
      </trkpt>
      <trkpt lat="42.7045" lon="0.64732">
        <ele>2003</ele>
        <time>2026-08-25T18:15:55Z</time>
      </trkpt>
      <trkpt lat="42.70449" lon="0.64732">
        <ele>2004</ele>
        <time>2026-08-25T18:15:56Z</time>
      </trkpt>
      <trkpt lat="42.70449" lon="0.64733">
        <ele>2004</ele>
        <time>2026-08-25T18:15:57Z</time>
      </trkpt>
      <trkpt lat="42.7045" lon="0.64739">
        <ele>2003</ele>
        <time>2026-08-25T18:16:03Z</time>
      </trkpt>
      <trkpt lat="42.7045" lon="0.64744">
        <ele>2003</ele>
        <time>2026-08-25T18:16:08Z</time>
      </trkpt>
      <trkpt lat="42.70449" lon="0.64759">
        <ele>2006</ele>
        <time>2026-08-25T18:16:23Z</time>
      </trkpt>
      <trkpt lat="42.70447" lon="0.64767">
        <ele>2010</ele>
        <time>2026-08-25T18:16:31Z</time>
      </trkpt>
      <trkpt lat="42.70445" lon="0.64781">
        <ele>2015</ele>
        <time>2026-08-25T18:16:45Z</time>
      </trkpt>
      <trkpt lat="42.70443" lon="0.64782">
        <ele>2017</ele>
        <time>2026-08-25T18:16:48Z</time>
      </trkpt>
      <trkpt lat="42.70443" lon="0.64781">
        <ele>2017</ele>
        <time>2026-08-25T18:16:49Z</time>
      </trkpt>
      <trkpt lat="42.70441" lon="0.64767">
        <ele>2014</ele>
        <time>2026-08-25T18:17:03Z</time>
      </trkpt>
      <trkpt lat="42.70437" lon="0.64751">
        <ele>2011</ele>
        <time>2026-08-25T18:17:19Z</time>
      </trkpt>
      <trkpt lat="42.7043" lon="0.64741">
        <ele>2016</ele>
        <time>2026-08-25T18:17:33Z</time>
      </trkpt>
      <trkpt lat="42.70429" lon="0.64741">
        <ele>2017</ele>
        <time>2026-08-25T18:17:34Z</time>
      </trkpt>
      <trkpt lat="42.70428" lon="0.64744">
        <ele>2017</ele>
        <time>2026-08-25T18:17:37Z</time>
      </trkpt>
      <trkpt lat="42.70433" lon="0.64753">
        <ele>2015</ele>
        <time>2026-08-25T18:17:48Z</time>
      </trkpt>
      <trkpt lat="42.70433" lon="0.64758">
        <ele>2016</ele>
        <time>2026-08-25T18:17:53Z</time>
      </trkpt>
      <trkpt lat="42.7043" lon="0.64768">
        <ele>2021</ele>
        <time>2026-08-25T18:18:04Z</time>
      </trkpt>
      <trkpt lat="42.7043" lon="0.6478">
        <ele>2025</ele>
        <time>2026-08-25T18:18:16Z</time>
      </trkpt>
      <trkpt lat="42.70429" lon="0.64782">
        <ele>2027</ele>
        <time>2026-08-25T18:18:18Z</time>
      </trkpt>
      <trkpt lat="42.70428" lon="0.64782">
        <ele>2027</ele>
        <time>2026-08-25T18:18:19Z</time>
      </trkpt>
      <trkpt lat="42.70426" lon="0.6478">
        <ele>2028</ele>
        <time>2026-08-25T18:18:23Z</time>
      </trkpt>
      <trkpt lat="42.70425" lon="0.64768">
        <ele>2025</ele>
        <time>2026-08-25T18:18:35Z</time>
      </trkpt>
      <trkpt lat="42.70423" lon="0.64763">
        <ele>2024</ele>
        <time>2026-08-25T18:18:40Z</time>
      </trkpt>
      <trkpt lat="42.70417" lon="0.64752">
        <ele>2024</ele>
        <time>2026-08-25T18:18:54Z</time>
      </trkpt>
      <trkpt lat="42.70416" lon="0.64752">
        <ele>2025</ele>
        <time>2026-08-25T18:18:55Z</time>
      </trkpt>
      <trkpt lat="42.70415" lon="0.64754">
        <ele>2027</ele>
        <time>2026-08-25T18:18:57Z</time>
      </trkpt>
      <trkpt lat="42.70419" lon="0.64762">
        <ele>2027</ele>
        <time>2026-08-25T18:19:07Z</time>
      </trkpt>
      <trkpt lat="42.70419" lon="0.64767">
        <ele>2028</ele>
        <time>2026-08-25T18:19:12Z</time>
      </trkpt>
      <trkpt lat="42.70417" lon="0.64783">
        <ele>2035</ele>
        <time>2026-08-25T18:19:28Z</time>
      </trkpt>
      <trkpt lat="42.70415" lon="0.64784">
        <ele>2037</ele>
        <time>2026-08-25T18:19:30Z</time>
      </trkpt>
      <trkpt lat="42.70413" lon="0.64783">
        <ele>2038</ele>
        <time>2026-08-25T18:19:33Z</time>
      </trkpt>
      <trkpt lat="42.70412" lon="0.64774">
        <ele>2036</ele>
        <time>2026-08-25T18:19:42Z</time>
      </trkpt>
      <trkpt lat="42.70409" lon="0.64766">
        <ele>2036</ele>
        <time>2026-08-25T18:19:51Z</time>
      </trkpt>
      <trkpt lat="42.70404" lon="0.64759">
        <ele>2037</ele>
        <time>2026-08-25T18:20:01Z</time>
      </trkpt>
      <trkpt lat="42.70403" lon="0.64759">
        <ele>2038</ele>
        <time>2026-08-25T18:20:02Z</time>
      </trkpt>
      <trkpt lat="42.70405" lon="0.64775">
        <ele>2042</ele>
        <time>2026-08-25T18:20:18Z</time>
      </trkpt>
      <trkpt lat="42.70404" lon="0.64781">
        <ele>2045</ele>
        <time>2026-08-25T18:20:24Z</time>
      </trkpt>
      <trkpt lat="42.70402" lon="0.64785">
        <ele>2048</ele>
        <time>2026-08-25T18:20:29Z</time>
      </trkpt>
      <trkpt lat="42.70401" lon="0.64784">
        <ele>2049</ele>
        <time>2026-08-25T18:20:30Z</time>
      </trkpt>
      <trkpt lat="42.70399" lon="0.64782">
        <ele>2049</ele>
        <time>2026-08-25T18:20:34Z</time>
      </trkpt>
      <trkpt lat="42.70395" lon="0.6477">
        <ele>2048</ele>
        <time>2026-08-25T18:20:47Z</time>
      </trkpt>
      <trkpt lat="42.70388" lon="0.64762">
        <ele>2050</ele>
        <time>2026-08-25T18:20:59Z</time>
      </trkpt>
      <trkpt lat="42.70386" lon="0.64757">
        <ele>2050</ele>
        <time>2026-08-25T18:21:04Z</time>
      </trkpt>
      <trkpt lat="42.70382" lon="0.64747">
        <ele>2050</ele>
        <time>2026-08-25T18:21:15Z</time>
      </trkpt>
      <trkpt lat="42.7038" lon="0.6474">
        <ele>2052</ele>
        <time>2026-08-25T18:21:23Z</time>
      </trkpt>
      <trkpt lat="42.70378" lon="0.64709">
        <ele>2054</ele>
        <time>2026-08-25T18:21:53Z</time>
      </trkpt>
      <trkpt lat="42.7038" lon="0.64702">
        <ele>2053</ele>
        <time>2026-08-25T18:22:01Z</time>
      </trkpt>
      <trkpt lat="42.7038" lon="0.64702">
        <ele>2053</ele>
        <time>2026-08-25T18:22:01Z</time>
      </trkpt>
      <trkpt lat="42.70395" lon="0.64678">
        <ele>2043</ele>
        <time>2026-08-25T18:22:32Z</time>
      </trkpt>
      <trkpt lat="42.70396" lon="0.64676">
        <ele>2043</ele>
        <time>2026-08-25T18:22:34Z</time>
      </trkpt>
      <trkpt lat="42.70397" lon="0.6467">
        <ele>2042</ele>
        <time>2026-08-25T18:22:40Z</time>
      </trkpt>
      <trkpt lat="42.70392" lon="0.64648">
        <ele>2046</ele>
        <time>2026-08-25T18:23:03Z</time>
      </trkpt>
      <trkpt lat="42.70389" lon="0.64621">
        <ele>2049</ele>
        <time>2026-08-25T18:23:29Z</time>
      </trkpt>
      <trkpt lat="42.70385" lon="0.64609">
        <ele>2052</ele>
        <time>2026-08-25T18:23:42Z</time>
      </trkpt>
      <trkpt lat="42.70381" lon="0.64588">
        <ele>2055</ele>
        <time>2026-08-25T18:24:04Z</time>
      </trkpt>
      <trkpt lat="42.70382" lon="0.64563">
        <ele>2057</ele>
        <time>2026-08-25T18:24:28Z</time>
      </trkpt>
      <trkpt lat="42.70381" lon="0.64555">
        <ele>2059</ele>
        <time>2026-08-25T18:24:36Z</time>
      </trkpt>
      <trkpt lat="42.70383" lon="0.64545">
        <ele>2058</ele>
        <time>2026-08-25T18:24:46Z</time>
      </trkpt>
      <trkpt lat="42.70382" lon="0.6454">
        <ele>2060</ele>
        <time>2026-08-25T18:24:51Z</time>
      </trkpt>
      <trkpt lat="42.70377" lon="0.64534">
        <ele>2063</ele>
        <time>2026-08-25T18:25:00Z</time>
      </trkpt>
      <trkpt lat="42.70375" lon="0.6454">
        <ele>2064</ele>
        <time>2026-08-25T18:25:07Z</time>
      </trkpt>
      <trkpt lat="42.70374" lon="0.64542">
        <ele>2064</ele>
        <time>2026-08-25T18:25:09Z</time>
      </trkpt>
      <trkpt lat="42.70373" lon="0.64542">
        <ele>2065</ele>
        <time>2026-08-25T18:25:10Z</time>
      </trkpt>
      <trkpt lat="42.70372" lon="0.64539">
        <ele>2066</ele>
        <time>2026-08-25T18:25:14Z</time>
      </trkpt>
      <trkpt lat="42.70373" lon="0.64534">
        <ele>2066</ele>
        <time>2026-08-25T18:25:19Z</time>
      </trkpt>
      <trkpt lat="42.70374" lon="0.64525">
        <ele>2066</ele>
        <time>2026-08-25T18:25:28Z</time>
      </trkpt>
      <trkpt lat="42.70374" lon="0.64522">
        <ele>2067</ele>
        <time>2026-08-25T18:25:31Z</time>
      </trkpt>
      <trkpt lat="42.70374" lon="0.6452">
        <ele>2067</ele>
        <time>2026-08-25T18:25:33Z</time>
      </trkpt>
      <trkpt lat="42.70369" lon="0.64518">
        <ele>2070</ele>
        <time>2026-08-25T18:25:39Z</time>
      </trkpt>
      <trkpt lat="42.70369" lon="0.64514">
        <ele>2070</ele>
        <time>2026-08-25T18:25:43Z</time>
      </trkpt>
      <trkpt lat="42.70367" lon="0.64511">
        <ele>2072</ele>
        <time>2026-08-25T18:25:47Z</time>
      </trkpt>
      <trkpt lat="42.70361" lon="0.6451">
        <ele>2075</ele>
        <time>2026-08-25T18:25:55Z</time>
      </trkpt>
      <trkpt lat="42.7036" lon="0.64509">
        <ele>2076</ele>
        <time>2026-08-25T18:25:57Z</time>
      </trkpt>
      <trkpt lat="42.70356" lon="0.64515">
        <ele>2078</ele>
        <time>2026-08-25T18:26:05Z</time>
      </trkpt>
      <trkpt lat="42.70354" lon="0.64522">
        <ele>2078</ele>
        <time>2026-08-25T18:26:12Z</time>
      </trkpt>
      <trkpt lat="42.70352" lon="0.64524">
        <ele>2079</ele>
        <time>2026-08-25T18:26:16Z</time>
      </trkpt>
      <trkpt lat="42.70348" lon="0.64526">
        <ele>2081</ele>
        <time>2026-08-25T18:26:21Z</time>
      </trkpt>
      <trkpt lat="42.70345" lon="0.64529">
        <ele>2083</ele>
        <time>2026-08-25T18:26:26Z</time>
      </trkpt>
      <trkpt lat="42.70342" lon="0.64534">
        <ele>2084</ele>
        <time>2026-08-25T18:26:33Z</time>
      </trkpt>
      <trkpt lat="42.70338" lon="0.64548">
        <ele>2086</ele>
        <time>2026-08-25T18:26:47Z</time>
      </trkpt>
      <trkpt lat="42.70336" lon="0.64563">
        <ele>2086</ele>
        <time>2026-08-25T18:27:02Z</time>
      </trkpt>
      <trkpt lat="42.70332" lon="0.6456">
        <ele>2088</ele>
        <time>2026-08-25T18:27:08Z</time>
      </trkpt>
      <trkpt lat="42.70327" lon="0.64554">
        <ele>2091</ele>
        <time>2026-08-25T18:27:17Z</time>
      </trkpt>
      <trkpt lat="42.70321" lon="0.6455">
        <ele>2095</ele>
        <time>2026-08-25T18:27:26Z</time>
      </trkpt>
      <trkpt lat="42.70316" lon="0.64544">
        <ele>2098</ele>
        <time>2026-08-25T18:27:35Z</time>
      </trkpt>
      <trkpt lat="42.70315" lon="0.64536">
        <ele>2100</ele>
        <time>2026-08-25T18:27:43Z</time>
      </trkpt>
      <trkpt lat="42.70312" lon="0.64541">
        <ele>2101</ele>
        <time>2026-08-25T18:27:49Z</time>
      </trkpt>
      <trkpt lat="42.7031" lon="0.6454">
        <ele>2102</ele>
        <time>2026-08-25T18:27:52Z</time>
      </trkpt>
      <trkpt lat="42.7031" lon="0.64537">
        <ele>2102</ele>
        <time>2026-08-25T18:27:55Z</time>
      </trkpt>
      <trkpt lat="42.70312" lon="0.6453">
        <ele>2102</ele>
        <time>2026-08-25T18:28:03Z</time>
      </trkpt>
      <trkpt lat="42.70314" lon="0.64506">
        <ele>2103</ele>
        <time>2026-08-25T18:28:26Z</time>
      </trkpt>
      <trkpt lat="42.70313" lon="0.64505">
        <ele>2104</ele>
        <time>2026-08-25T18:28:28Z</time>
      </trkpt>
      <trkpt lat="42.70312" lon="0.64506">
        <ele>2104</ele>
        <time>2026-08-25T18:28:30Z</time>
      </trkpt>
      <trkpt lat="42.70312" lon="0.64509">
        <ele>2104</ele>
        <time>2026-08-25T18:28:33Z</time>
      </trkpt>
      <trkpt lat="42.70306" lon="0.64522">
        <ele>2106</ele>
        <time>2026-08-25T18:28:48Z</time>
      </trkpt>
      <trkpt lat="42.70302" lon="0.64528">
        <ele>2108</ele>
        <time>2026-08-25T18:28:56Z</time>
      </trkpt>
      <trkpt lat="42.70301" lon="0.64532">
        <ele>2108</ele>
        <time>2026-08-25T18:29:00Z</time>
      </trkpt>
      <trkpt lat="42.70298" lon="0.64534">
        <ele>2109</ele>
        <time>2026-08-25T18:29:04Z</time>
      </trkpt>
      <trkpt lat="42.70298" lon="0.6453">
        <ele>2110</ele>
        <time>2026-08-25T18:29:08Z</time>
      </trkpt>
      <trkpt lat="42.703" lon="0.6452">
        <ele>2110</ele>
        <time>2026-08-25T18:29:18Z</time>
      </trkpt>
      <trkpt lat="42.70301" lon="0.645">
        <ele>2112</ele>
        <time>2026-08-25T18:29:38Z</time>
      </trkpt>
      <trkpt lat="42.70299" lon="0.64499">
        <ele>2113</ele>
        <time>2026-08-25T18:29:41Z</time>
      </trkpt>
      <trkpt lat="42.70298" lon="0.64506">
        <ele>2113</ele>
        <time>2026-08-25T18:29:48Z</time>
      </trkpt>
      <trkpt lat="42.70296" lon="0.64513">
        <ele>2113</ele>
        <time>2026-08-25T18:29:55Z</time>
      </trkpt>
      <trkpt lat="42.70292" lon="0.64522">
        <ele>2114</ele>
        <time>2026-08-25T18:30:05Z</time>
      </trkpt>
      <trkpt lat="42.70291" lon="0.64524">
        <ele>2115</ele>
        <time>2026-08-25T18:30:08Z</time>
      </trkpt>
      <trkpt lat="42.7029" lon="0.64524">
        <ele>2115</ele>
        <time>2026-08-25T18:30:09Z</time>
      </trkpt>
      <trkpt lat="42.70289" lon="0.64522">
        <ele>2116</ele>
        <time>2026-08-25T18:30:11Z</time>
      </trkpt>
      <trkpt lat="42.70291" lon="0.64512">
        <ele>2116</ele>
        <time>2026-08-25T18:30:22Z</time>
      </trkpt>
      <trkpt lat="42.70292" lon="0.645">
        <ele>2117</ele>
        <time>2026-08-25T18:30:33Z</time>
      </trkpt>
      <trkpt lat="42.70291" lon="0.64497">
        <ele>2119</ele>
        <time>2026-08-25T18:30:37Z</time>
      </trkpt>
      <trkpt lat="42.7029" lon="0.64497">
        <ele>2119</ele>
        <time>2026-08-25T18:30:38Z</time>
      </trkpt>
      <trkpt lat="42.70289" lon="0.645">
        <ele>2119</ele>
        <time>2026-08-25T18:30:41Z</time>
      </trkpt>
      <trkpt lat="42.70287" lon="0.64512">
        <ele>2119</ele>
        <time>2026-08-25T18:30:53Z</time>
      </trkpt>
      <trkpt lat="42.70284" lon="0.6452">
        <ele>2119</ele>
        <time>2026-08-25T18:31:02Z</time>
      </trkpt>
      <trkpt lat="42.70281" lon="0.6453">
        <ele>2119</ele>
        <time>2026-08-25T18:31:13Z</time>
      </trkpt>
      <trkpt lat="42.70278" lon="0.64534">
        <ele>2120</ele>
        <time>2026-08-25T18:31:18Z</time>
      </trkpt>
      <trkpt lat="42.70271" lon="0.64548">
        <ele>2122</ele>
        <time>2026-08-25T18:31:35Z</time>
      </trkpt>
      <trkpt lat="42.70269" lon="0.64556">
        <ele>2122</ele>
        <time>2026-08-25T18:31:43Z</time>
      </trkpt>
      <trkpt lat="42.70268" lon="0.64557">
        <ele>2122</ele>
        <time>2026-08-25T18:31:45Z</time>
      </trkpt>
      <trkpt lat="42.70266" lon="0.64555">
        <ele>2123</ele>
        <time>2026-08-25T18:31:48Z</time>
      </trkpt>
      <trkpt lat="42.70269" lon="0.64533">
        <ele>2126</ele>
        <time>2026-08-25T18:32:10Z</time>
      </trkpt>
      <trkpt lat="42.70269" lon="0.64531">
        <ele>2126</ele>
        <time>2026-08-25T18:32:12Z</time>
      </trkpt>
      <trkpt lat="42.70267" lon="0.64534">
        <ele>2127</ele>
        <time>2026-08-25T18:32:16Z</time>
      </trkpt>
      <trkpt lat="42.70264" lon="0.6454">
        <ele>2127</ele>
        <time>2026-08-25T18:32:23Z</time>
      </trkpt>
      <trkpt lat="42.70258" lon="0.64546">
        <ele>2129</ele>
        <time>2026-08-25T18:32:33Z</time>
      </trkpt>
      <trkpt lat="42.70253" lon="0.6455">
        <ele>2131</ele>
        <time>2026-08-25T18:32:41Z</time>
      </trkpt>
      <trkpt lat="42.70251" lon="0.6455">
        <ele>2132</ele>
        <time>2026-08-25T18:32:44Z</time>
      </trkpt>
      <trkpt lat="42.70241" lon="0.64537">
        <ele>2137</ele>
        <time>2026-08-25T18:33:02Z</time>
      </trkpt>
      <trkpt lat="42.70232" lon="0.64521">
        <ele>2141</ele>
        <time>2026-08-25T18:33:22Z</time>
      </trkpt>
      <trkpt lat="42.7022" lon="0.64506">
        <ele>2144</ele>
        <time>2026-08-25T18:33:44Z</time>
      </trkpt>
      <trkpt lat="42.70199" lon="0.64495">
        <ele>2148</ele>
        <time>2026-08-25T18:34:14Z</time>
      </trkpt>
      <trkpt lat="42.7019" lon="0.64477">
        <ele>2153</ele>
        <time>2026-08-25T18:34:35Z</time>
      </trkpt>
      <trkpt lat="42.70179" lon="0.64462">
        <ele>2158</ele>
        <time>2026-08-25T18:34:56Z</time>
      </trkpt>
      <trkpt lat="42.70163" lon="0.6444">
        <ele>2165</ele>
        <time>2026-08-25T18:35:26Z</time>
      </trkpt>
      <trkpt lat="42.70157" lon="0.64437">
        <ele>2167</ele>
        <time>2026-08-25T18:35:35Z</time>
      </trkpt>
      <trkpt lat="42.70146" lon="0.6443">
        <ele>2172</ele>
        <time>2026-08-25T18:35:51Z</time>
      </trkpt>
      <trkpt lat="42.7014" lon="0.6443">
        <ele>2173</ele>
        <time>2026-08-25T18:35:59Z</time>
      </trkpt>
      <trkpt lat="42.70089" lon="0.64447">
        <ele>2180</ele>
        <time>2026-08-25T18:37:09Z</time>
      </trkpt>
      <trkpt lat="42.70082" lon="0.6445">
        <ele>2181</ele>
        <time>2026-08-25T18:37:19Z</time>
      </trkpt>
      <trkpt lat="42.70077" lon="0.64453">
        <ele>2181</ele>
        <time>2026-08-25T18:37:26Z</time>
      </trkpt>
      <trkpt lat="42.70074" lon="0.64454">
        <ele>2181</ele>
        <time>2026-08-25T18:37:30Z</time>
      </trkpt>
      <trkpt lat="42.70068" lon="0.64456">
        <ele>2182</ele>
        <time>2026-08-25T18:37:38Z</time>
      </trkpt>
      <trkpt lat="42.70064" lon="0.64455">
        <ele>2183</ele>
        <time>2026-08-25T18:37:44Z</time>
      </trkpt>
      <trkpt lat="42.70058" lon="0.64455">
        <ele>2184</ele>
        <time>2026-08-25T18:37:52Z</time>
      </trkpt>
      <trkpt lat="42.70055" lon="0.64454">
        <ele>2185</ele>
        <time>2026-08-25T18:37:56Z</time>
      </trkpt>
      <trkpt lat="42.70053" lon="0.64445">
        <ele>2187</ele>
        <time>2026-08-25T18:38:05Z</time>
      </trkpt>
      <trkpt lat="42.70056" lon="0.64432">
        <ele>2190</ele>
        <time>2026-08-25T18:38:18Z</time>
      </trkpt>
      <trkpt lat="42.70058" lon="0.64429">
        <ele>2190</ele>
        <time>2026-08-25T18:38:22Z</time>
      </trkpt>
      <trkpt lat="42.70057" lon="0.64421">
        <ele>2192</ele>
        <time>2026-08-25T18:38:30Z</time>
      </trkpt>
      <trkpt lat="42.70062" lon="0.6442">
        <ele>2192</ele>
        <time>2026-08-25T18:38:37Z</time>
      </trkpt>
      <trkpt lat="42.70063" lon="0.64418">
        <ele>2192</ele>
        <time>2026-08-25T18:38:39Z</time>
      </trkpt>
      <trkpt lat="42.70063" lon="0.64413">
        <ele>2194</ele>
        <time>2026-08-25T18:38:44Z</time>
      </trkpt>
      <trkpt lat="42.70063" lon="0.64407">
        <ele>2196</ele>
        <time>2026-08-25T18:38:50Z</time>
      </trkpt>
      <trkpt lat="42.70062" lon="0.64405">
        <ele>2197</ele>
        <time>2026-08-25T18:38:53Z</time>
      </trkpt>
      <trkpt lat="42.70063" lon="0.64401">
        <ele>2198</ele>
        <time>2026-08-25T18:38:57Z</time>
      </trkpt>
      <trkpt lat="42.70062" lon="0.64399">
        <ele>2199</ele>
        <time>2026-08-25T18:38:59Z</time>
      </trkpt>
      <trkpt lat="42.70064" lon="0.64393">
        <ele>2201</ele>
        <time>2026-08-25T18:39:06Z</time>
      </trkpt>
      <trkpt lat="42.70059" lon="0.64386">
        <ele>2204</ele>
        <time>2026-08-25T18:39:15Z</time>
      </trkpt>
      <trkpt lat="42.70053" lon="0.64372">
        <ele>2209</ele>
        <time>2026-08-25T18:39:31Z</time>
      </trkpt>
      <trkpt lat="42.70049" lon="0.64364">
        <ele>2212</ele>
        <time>2026-08-25T18:39:41Z</time>
      </trkpt>
      <trkpt lat="42.70048" lon="0.64358">
        <ele>2214</ele>
        <time>2026-08-25T18:39:47Z</time>
      </trkpt>
      <trkpt lat="42.70046" lon="0.64353">
        <ele>2215</ele>
        <time>2026-08-25T18:39:52Z</time>
      </trkpt>
      <trkpt lat="42.70046" lon="0.64351">
        <ele>2216</ele>
        <time>2026-08-25T18:39:54Z</time>
      </trkpt>
      <trkpt lat="42.70043" lon="0.64346">
        <ele>2217</ele>
        <time>2026-08-25T18:40:00Z</time>
      </trkpt>
      <trkpt lat="42.70042" lon="0.64341">
        <ele>2219</ele>
        <time>2026-08-25T18:40:06Z</time>
      </trkpt>
      <trkpt lat="42.70043" lon="0.64338">
        <ele>2220</ele>
        <time>2026-08-25T18:40:09Z</time>
      </trkpt>
      <trkpt lat="42.70043" lon="0.64336">
        <ele>2221</ele>
        <time>2026-08-25T18:40:11Z</time>
      </trkpt>
      <trkpt lat="42.70038" lon="0.64323">
        <ele>2224</ele>
        <time>2026-08-25T18:40:25Z</time>
      </trkpt>
      <trkpt lat="42.70037" lon="0.64318">
        <ele>2226</ele>
        <time>2026-08-25T18:40:30Z</time>
      </trkpt>
      <trkpt lat="42.70019" lon="0.64299">
        <ele>2231</ele>
        <time>2026-08-25T18:41:01Z</time>
      </trkpt>
      <trkpt lat="42.70016" lon="0.6429">
        <ele>2233</ele>
        <time>2026-08-25T18:41:10Z</time>
      </trkpt>
      <trkpt lat="42.70012" lon="0.64283">
        <ele>2235</ele>
        <time>2026-08-25T18:41:19Z</time>
      </trkpt>
      <trkpt lat="42.70001" lon="0.64272">
        <ele>2238</ele>
        <time>2026-08-25T18:41:37Z</time>
      </trkpt>
      <trkpt lat="42.69984" lon="0.64268">
        <ele>2241</ele>
        <time>2026-08-25T18:42:00Z</time>
      </trkpt>
      <trkpt lat="42.69981" lon="0.64262">
        <ele>2243</ele>
        <time>2026-08-25T18:42:07Z</time>
      </trkpt>
      <trkpt lat="42.69975" lon="0.6425">
        <ele>2247</ele>
        <time>2026-08-25T18:42:22Z</time>
      </trkpt>
      <trkpt lat="42.69973" lon="0.64242">
        <ele>2247</ele>
        <time>2026-08-25T18:42:30Z</time>
      </trkpt>
      <trkpt lat="42.69966" lon="0.64236">
        <ele>2248</ele>
        <time>2026-08-25T18:42:41Z</time>
      </trkpt>
      <trkpt lat="42.69964" lon="0.64234">
        <ele>2248</ele>
        <time>2026-08-25T18:42:44Z</time>
      </trkpt>
      <trkpt lat="42.69964" lon="0.64229">
        <ele>2248</ele>
        <time>2026-08-25T18:42:49Z</time>
      </trkpt>
      <trkpt lat="42.7001" lon="0.6422">
        <ele>2245</ele>
        <time>2026-08-25T18:43:51Z</time>
      </trkpt>
      <trkpt lat="42.70015" lon="0.64211">
        <ele>2245</ele>
        <time>2026-08-25T18:44:02Z</time>
      </trkpt>
      <trkpt lat="42.70015" lon="0.64208">
        <ele>2245</ele>
        <time>2026-08-25T18:44:05Z</time>
      </trkpt>
    </trkseg>
  </trk>
</gpx>